Nearby METAR Reports

 

KFRG - , , USA
Distance from station: SSW 12mi, 20km
Updated: 02/04/2023 10:53pm
Clear
Clear
 Wind from SW
Wind: SW 13 mph , 20 km/h
Temperature: 28°F , -2°C
Wind Chill: 17°F , -8°C
Dew Point: 12°F , -11°C
Humidity: 51%
Barometer: 30.45 inHg , 1031.2 hPa
Clouds: Clear
Visibility: 10 miles , 16 km
2023/02/05 03:53 KFRG 050353Z AUTO 23011KT 10SM CLR M02/M11 A3045 RMK AO2 SLP314 T10221111 $
KISP - , , USA
Distance from station: ESE 14mi, 23km
Updated: 02/04/2023 10:56pm
Few Clouds
Few Clouds
 Wind from SW
Wind: SW 8 mph , 13 km/h
Temperature: 27°F , -3°C
Wind Chill: 19°F , -7°C
Dew Point: 12°F , -11°C
Humidity: 54%
Barometer: 30.45 inHg , 1031.2 hPa
Clouds: Few Clouds
Visibility: 10 miles , 16 km
Cloud details: Few Clouds 6000 ft
2023/02/05 03:56 KISP 050356Z 23007KT 10SM FEW060 M03/M11 A3045 RMK AO2 SLP311 T10331111
 
KBDR - , , USA
Distance from station: NNE 21mi, 34km
Updated: 02/04/2023 10:52pm
Clear
Clear
 Wind from SW
Wind: SW 18 mph , 30 km/h, Gust: 28 mph , 44 km/h
Temperature: 27°F , -3°C
Wind Chill: 14°F , -10°C
Dew Point: 9°F , -13°C
Humidity: 46%
Barometer: 30.45 inHg , 1031.2 hPa
Clouds: Clear
Visibility: 10 miles , 16 km
2023/02/05 03:52 KBDR 050352Z AUTO 23016G24KT 10SM CLR M03/M13 A3045 RMK AO2 SLP310 T10281128
KHPN - , , USA
Distance from station: WNW 22mi, 35km
Updated: 02/04/2023 10:56pm
Clear
Clear
 Wind from S
Wind: S 5 mph , 7 km/h
Temperature: 21°F , -6°C
Wind Chill: 14°F , -10°C
Dew Point: 7°F , -14°C
Humidity: 54%
Barometer: 30.41 inHg , 1029.8 hPa
Clouds: Clear
Visibility: 10 miles , 16 km
2023/02/05 03:56 KHPN 050356Z 18004KT 10SM CLR M06/M14 A3041 RMK AO2 SLP311 T10561144
 
KHWV - , , USA
Distance from station: ESE 26mi, 41km
Updated: 02/04/2023 9:56pm
Partly cloudy
Partly cloudy
 Wind from SW
Wind: SW 16 mph , 26 km/h, Gust: 26 mph , 43 km/h
Temperature: 28°F , -2°C
Wind Chill: 16°F , -9°C
Dew Point: 10°F , -12°C
Humidity: 47%
Barometer: 30.47 inHg , 1031.8 hPa
Clouds: Partly cloudy
Visibility: 10 miles , 16 km
Cloud details: Partly cloudy 6000 ft
2023/02/05 02:56 KHWV 050256Z AUTO 22014G23KT 10SM SCT060 M02/M12 A3047 RMK AO2 SLP321 T10221122 55016 $
KJFK - , , USA
Distance from station: SW 29mi, 46km
Updated: 02/04/2023 10:51pm
Few Clouds
Few Clouds
 Wind from SSW
Wind: SSW 20 mph , 31 km/h, Gust: 26 mph , 43 km/h
Temperature: 27°F , -3°C
Wind Chill: 13°F , -11°C
Dew Point: 16°F , -9°C
Humidity: 64%
Barometer: 30.47 inHg , 1031.8 hPa
Clouds: Few Clouds
Visibility: 10 miles , 16 km
Cloud details: Few Clouds 25000 ft
2023/02/05 03:51 KJFK 050351Z 21017G23KT 10SM FEW250 M03/M09 A3047 RMK AO2 SLP318 T10281094
 
KLGA - , , USA
Distance from station: WSW 29mi, 47km
Updated: 02/04/2023 10:51pm
Few Clouds
Few Clouds
 Wind from SSW
Wind: SSW 12 mph , 19 km/h
Temperature: 27°F , -3°C
Wind Chill: 16°F , -9°C
Dew Point: 9°F , -13°C
Humidity: 46%
Barometer: 30.45 inHg , 1031.2 hPa
Clouds: Few Clouds
Visibility: 10 miles , 16 km
Cloud details: Few Clouds 25000 ft
2023/02/05 03:51 KLGA 050351Z 21010KT 10SM FEW250 M03/M13 A3045 RMK AO2 SLP310 T10331128